sensor_id;sensor_type;location;lat;lon;timestamp;temperature;humidity
18898;DHT22;9581;49.484;8.556;2023-09-19T00:00:30;17.50;99.90
18898;DHT22;9581;49.484;8.556;2023-09-19T00:02:59;17.60;99.90
18898;DHT22;9581;49.484;8.556;2023-09-19T00:05:28;17.90;99.90
18898;DHT22;9581;49.484;8.556;2023-09-19T00:07:56;18.00;99.90
18898;DHT22;9581;49.484;8.556;2023-09-19T00:10:24;17.90;99.90
18898;DHT22;9581;49.484;8.556;2023-09-19T00:12:53;17.70;99.90
18898;DHT22;9581;49.484;8.556;2023-09-19T00:15:22;17.40;99.90
18898;DHT22;9581;49.484;8.556;2023-09-19T00:17:48;17.30;99.90
18898;DHT22;9581;49.484;8.556;2023-09-19T00:20:18;17.20;99.90
18898;DHT22;9581;49.484;8.556;2023-09-19T00:22:46;17.20;99.90
18898;DHT22;9581;49.484;8.556;2023-09-19T00:25:13;17.20;99.90
18898;DHT22;9581;49.484;8.556;2023-09-19T00:27:41;17.10;99.90
18898;DHT22;9581;49.484;8.556;2023-09-19T00:30:09;17.30;99.90
18898;DHT22;9581;49.484;8.556;2023-09-19T00:32:40;17.20;99.90
18898;DHT22;9581;49.484;8.556;2023-09-19T00:35:07;17.20;99.90
18898;DHT22;9581;49.484;8.556;2023-09-19T00:37:35;17.10;99.90
18898;DHT22;9581;49.484;8.556;2023-09-19T00:40:04;17.10;99.90
18898;DHT22;9581;49.484;8.556;2023-09-19T00:42:32;17.20;99.90
18898;DHT22;9581;49.484;8.556;2023-09-19T00:44:59;17.10;99.90
18898;DHT22;9581;49.484;8.556;2023-09-19T00:47:29;17.10;99.90
18898;DHT22;9581;49.484;8.556;2023-09-19T00:49:56;17.10;99.90
18898;DHT22;9581;49.484;8.556;2023-09-19T00:52:23;17.00;99.90
18898;DHT22;9581;49.484;8.556;2023-09-19T00:54:51;17.00;99.90
18898;DHT22;9581;49.484;8.556;2023-09-19T00:57:19;17.00;99.90
18898;DHT22;9581;49.484;8.556;2023-09-19T00:59:48;17.10;99.90
18898;DHT22;9581;49.484;8.556;2023-09-19T01:02:17;17.00;99.90
18898;DHT22;9581;49.484;8.556;2023-09-19T01:04:44;17.00;99.90
18898;DHT22;9581;49.484;8.556;2023-09-19T01:07:11;17.00;99.90
18898;DHT22;9581;49.484;8.556;2023-09-19T01:09:40;17.00;99.90
18898;DHT22;9581;49.484;8.556;2023-09-19T01:12:08;16.90;99.90
18898;DHT22;9581;49.484;8.556;2023-09-19T01:14:44;16.90;99.90
18898;DHT22;9581;49.484;8.556;2023-09-19T01:17:22;16.90;99.90
18898;DHT22;9581;49.484;8.556;2023-09-19T01:20:11;16.90;99.90
18898;DHT22;9581;49.484;8.556;2023-09-19T01:22:48;16.90;99.90
18898;DHT22;9581;49.484;8.556;2023-09-19T01:28:30;16.90;99.90
18898;DHT22;9581;49.484;8.556;2023-09-19T01:31:03;17.00;99.90
18898;DHT22;9581;49.484;8.556;2023-09-19T01:33:56;17.00;99.90
18898;DHT22;9581;49.484;8.556;2023-09-19T01:36:25;17.10;99.90
18898;DHT22;9581;49.484;8.556;2023-09-19T01:38:52;17.00;99.90
18898;DHT22;9581;49.484;8.556;2023-09-19T01:41:24;17.00;99.90
18898;DHT22;9581;49.484;8.556;2023-09-19T01:43:52;17.00;99.90
18898;DHT22;9581;49.484;8.556;2023-09-19T01:46:25;17.10;99.90
18898;DHT22;9581;49.484;8.556;2023-09-19T01:49:06;17.10;99.90
18898;DHT22;9581;49.484;8.556;2023-09-19T01:51:53;17.10;99.90
18898;DHT22;9581;49.484;8.556;2023-09-19T01:54:27;17.40;99.90
18898;DHT22;9581;49.484;8.556;2023-09-19T01:56:59;17.40;99.90
18898;DHT22;9581;49.484;8.556;2023-09-19T01:59:35;17.50;99.90
18898;DHT22;9581;49.484;8.556;2023-09-19T02:02:06;17.70;99.90
18898;DHT22;9581;49.484;8.556;2023-09-19T02:04:34;17.80;99.90
18898;DHT22;9581;49.484;8.556;2023-09-19T02:07:01;17.90;99.90
18898;DHT22;9581;49.484;8.556;2023-09-19T02:09:31;17.90;99.90
18898;DHT22;9581;49.484;8.556;2023-09-19T02:11:58;17.90;99.90
18898;DHT22;9581;49.484;8.556;2023-09-19T02:14:25;17.80;99.90
18898;DHT22;9581;49.484;8.556;2023-09-19T02:16:53;17.70;99.90
18898;DHT22;9581;49.484;8.556;2023-09-19T02:19:21;17.90;99.90
18898;DHT22;9581;49.484;8.556;2023-09-19T02:21:48;17.90;99.90
18898;DHT22;9581;49.484;8.556;2023-09-19T02:24:15;17.80;99.90
18898;DHT22;9581;49.484;8.556;2023-09-19T02:26:42;17.90;99.90
18898;DHT22;9581;49.484;8.556;2023-09-19T02:29:09;18.00;99.90
18898;DHT22;9581;49.484;8.556;2023-09-19T02:31:38;18.10;99.90
18898;DHT22;9581;49.484;8.556;2023-09-19T02:34:08;18.20;99.90
18898;DHT22;9581;49.484;8.556;2023-09-19T02:36:37;18.20;99.90
18898;DHT22;9581;49.484;8.556;2023-09-19T02:39:04;18.30;99.90
18898;DHT22;9581;49.484;8.556;2023-09-19T02:41:33;18.20;99.90
18898;DHT22;9581;49.484;8.556;2023-09-19T02:44:00;18.20;99.90
18898;DHT22;9581;49.484;8.556;2023-09-19T02:46:28;18.20;99.90
18898;DHT22;9581;49.484;8.556;2023-09-19T02:48:55;18.10;99.90
18898;DHT22;9581;49.484;8.556;2023-09-19T02:51:22;18.20;99.90
18898;DHT22;9581;49.484;8.556;2023-09-19T02:53:51;18.20;99.90
18898;DHT22;9581;49.484;8.556;2023-09-19T02:56:20;18.10;99.90
18898;DHT22;9581;49.484;8.556;2023-09-19T02:58:48;18.20;99.90
18898;DHT22;9581;49.484;8.556;2023-09-19T03:01:15;18.10;99.90
18898;DHT22;9581;49.484;8.556;2023-09-19T03:03:42;18.00;99.90
18898;DHT22;9581;49.484;8.556;2023-09-19T03:06:09;18.10;99.90
18898;DHT22;9581;49.484;8.556;2023-09-19T03:08:36;18.20;99.90
18898;DHT22;9581;49.484;8.556;2023-09-19T03:11:06;18.20;99.90
18898;DHT22;9581;49.484;8.556;2023-09-19T03:13:37;18.10;99.90
18898;DHT22;9581;49.484;8.556;2023-09-19T03:16:05;18.10;99.90
18898;DHT22;9581;49.484;8.556;2023-09-19T03:18:33;18.20;99.90
18898;DHT22;9581;49.484;8.556;2023-09-19T03:21:00;18.30;99.90
18898;DHT22;9581;49.484;8.556;2023-09-19T03:23:28;18.30;99.90
18898;DHT22;9581;49.484;8.556;2023-09-19T03:25:55;18.30;99.90
18898;DHT22;9581;49.484;8.556;2023-09-19T03:28:24;18.30;99.90
18898;DHT22;9581;49.484;8.556;2023-09-19T03:31:00;18.10;99.90
18898;DHT22;9581;49.484;8.556;2023-09-19T03:33:27;18.10;99.90
18898;DHT22;9581;49.484;8.556;2023-09-19T03:35:57;17.90;99.90
18898;DHT22;9581;49.484;8.556;2023-09-19T03:38:24;17.90;99.90
18898;DHT22;9581;49.484;8.556;2023-09-19T03:40:51;17.70;99.90
18898;DHT22;9581;49.484;8.556;2023-09-19T03:43:18;17.70;99.90
18898;DHT22;9581;49.484;8.556;2023-09-19T03:45:46;17.90;99.90
18898;DHT22;9581;49.484;8.556;2023-09-19T03:48:14;18.00;99.90
18898;DHT22;9581;49.484;8.556;2023-09-19T03:50:41;18.00;99.90
18898;DHT22;9581;49.484;8.556;2023-09-19T03:53:09;17.90;99.90
18898;DHT22;9581;49.484;8.556;2023-09-19T03:55:36;17.90;99.90
18898;DHT22;9581;49.484;8.556;2023-09-19T03:58:04;17.80;99.90
18898;DHT22;9581;49.484;8.556;2023-09-19T04:00:31;17.80;99.90
18898;DHT22;9581;49.484;8.556;2023-09-19T04:02:59;17.70;99.90
18898;DHT22;9581;49.484;8.556;2023-09-19T04:05:28;17.80;99.90
18898;DHT22;9581;49.484;8.556;2023-09-19T04:07:55;17.80;99.90
18898;DHT22;9581;49.484;8.556;2023-09-19T04:10:21;17.90;99.90
18898;DHT22;9581;49.484;8.556;2023-09-19T04:12:51;17.90;99.90
18898;DHT22;9581;49.484;8.556;2023-09-19T04:15:19;17.80;99.90
18898;DHT22;9581;49.484;8.556;2023-09-19T04:17:48;17.70;99.90
18898;DHT22;9581;49.484;8.556;2023-09-19T04:20:16;17.50;99.90
18898;DHT22;9581;49.484;8.556;2023-09-19T04:22:45;17.50;99.90
18898;DHT22;9581;49.484;8.556;2023-09-19T04:25:11;17.40;99.90
18898;DHT22;9581;49.484;8.556;2023-09-19T04:27:38;17.50;99.90
18898;DHT22;9581;49.484;8.556;2023-09-19T04:30:07;17.70;99.90
18898;DHT22;9581;49.484;8.556;2023-09-19T04:32:37;17.40;99.90
18898;DHT22;9581;49.484;8.556;2023-09-19T04:35:06;17.40;99.90
18898;DHT22;9581;49.484;8.556;2023-09-19T04:37:37;17.40;99.90
18898;DHT22;9581;49.484;8.556;2023-09-19T04:40:06;17.40;99.90
18898;DHT22;9581;49.484;8.556;2023-09-19T04:42:38;17.50;99.90
18898;DHT22;9581;49.484;8.556;2023-09-19T04:45:05;17.40;99.90
18898;DHT22;9581;49.484;8.556;2023-09-19T04:47:33;17.60;99.90
18898;DHT22;9581;49.484;8.556;2023-09-19T04:50:00;17.60;99.90
18898;DHT22;9581;49.484;8.556;2023-09-19T04:52:26;17.60;99.90
18898;DHT22;9581;49.484;8.556;2023-09-19T04:54:54;17.60;99.90
18898;DHT22;9581;49.484;8.556;2023-09-19T04:57:21;17.50;99.90
18898;DHT22;9581;49.484;8.556;2023-09-19T04:59:48;17.40;99.90
18898;DHT22;9581;49.484;8.556;2023-09-19T05:02:15;17.40;99.90
18898;DHT22;9581;49.484;8.556;2023-09-19T05:04:42;17.50;99.90
18898;DHT22;9581;49.484;8.556;2023-09-19T05:07:09;17.50;99.90
18898;DHT22;9581;49.484;8.556;2023-09-19T05:09:36;17.70;99.90
18898;DHT22;9581;49.484;8.556;2023-09-19T05:12:04;17.60;99.90
18898;DHT22;9581;49.484;8.556;2023-09-19T05:14:32;17.60;99.90
18898;DHT22;9581;49.484;8.556;2023-09-19T05:16:58;17.60;99.90
18898;DHT22;9581;49.484;8.556;2023-09-19T05:19:25;17.60;99.90
18898;DHT22;9581;49.484;8.556;2023-09-19T05:21:52;17.60;99.90
18898;DHT22;9581;49.484;8.556;2023-09-19T05:24:20;17.40;99.90
18898;DHT22;9581;49.484;8.556;2023-09-19T05:26:48;17.60;99.90
18898;DHT22;9581;49.484;8.556;2023-09-19T05:29:17;17.60;99.90
18898;DHT22;9581;49.484;8.556;2023-09-19T05:31:43;17.50;99.90
18898;DHT22;9581;49.484;8.556;2023-09-19T05:34:10;17.40;99.90
18898;DHT22;9581;49.484;8.556;2023-09-19T05:36:37;17.40;99.90
18898;DHT22;9581;49.484;8.556;2023-09-19T05:39:05;17.50;99.90
18898;DHT22;9581;49.484;8.556;2023-09-19T05:41:34;17.50;99.90
18898;DHT22;9581;49.484;8.556;2023-09-19T05:44:02;17.60;99.90
18898;DHT22;9581;49.484;8.556;2023-09-19T05:46:30;17.60;99.90
18898;DHT22;9581;49.484;8.556;2023-09-19T05:48:57;17.70;99.90
18898;DHT22;9581;49.484;8.556;2023-09-19T05:51:24;17.80;99.90
18898;DHT22;9581;49.484;8.556;2023-09-19T05:53:54;17.60;99.90
18898;DHT22;9581;49.484;8.556;2023-09-19T05:56:21;17.70;99.90
18898;DHT22;9581;49.484;8.556;2023-09-19T05:58:48;17.60;99.90
18898;DHT22;9581;49.484;8.556;2023-09-19T06:01:17;17.70;99.90
18898;DHT22;9581;49.484;8.556;2023-09-19T06:03:45;17.80;99.90
18898;DHT22;9581;49.484;8.556;2023-09-19T06:06:12;17.80;99.90
18898;DHT22;9581;49.484;8.556;2023-09-19T06:08:39;17.90;99.90
18898;DHT22;9581;49.484;8.556;2023-09-19T06:11:05;17.90;99.90
18898;DHT22;9581;49.484;8.556;2023-09-19T06:13:34;17.90;99.90
18898;DHT22;9581;49.484;8.556;2023-09-19T06:16:01;17.80;99.90
18898;DHT22;9581;49.484;8.556;2023-09-19T06:18:30;17.90;99.90
18898;DHT22;9581;49.484;8.556;2023-09-19T06:21:00;17.90;99.90
18898;DHT22;9581;49.484;8.556;2023-09-19T06:23:30;18.00;99.90
18898;DHT22;9581;49.484;8.556;2023-09-19T06:25:57;17.90;99.90
18898;DHT22;9581;49.484;8.556;2023-09-19T06:28:24;17.70;99.90
18898;DHT22;9581;49.484;8.556;2023-09-19T06:30:53;17.80;99.90
18898;DHT22;9581;49.484;8.556;2023-09-19T06:33:20;17.90;99.90
18898;DHT22;9581;49.484;8.556;2023-09-19T06:35:48;17.90;99.90
18898;DHT22;9581;49.484;8.556;2023-09-19T06:38:18;17.80;99.90
18898;DHT22;9581;49.484;8.556;2023-09-19T06:40:44;17.90;99.90
18898;DHT22;9581;49.484;8.556;2023-09-19T06:43:12;17.90;99.90
18898;DHT22;9581;49.484;8.556;2023-09-19T06:45:39;18.00;99.90
18898;DHT22;9581;49.484;8.556;2023-09-19T06:48:06;18.00;99.90
18898;DHT22;9581;49.484;8.556;2023-09-19T06:50:34;17.90;99.90
18898;DHT22;9581;49.484;8.556;2023-09-19T06:53:01;18.00;99.90
18898;DHT22;9581;49.484;8.556;2023-09-19T06:55:30;18.00;99.90
18898;DHT22;9581;49.484;8.556;2023-09-19T06:57:57;18.10;99.90
18898;DHT22;9581;49.484;8.556;2023-09-19T07:00:24;18.00;99.90
18898;DHT22;9581;49.484;8.556;2023-09-19T07:02:58;17.90;99.90
18898;DHT22;9581;49.484;8.556;2023-09-19T07:05:27;18.10;99.90
18898;DHT22;9581;49.484;8.556;2023-09-19T07:07:54;18.10;99.90
18898;DHT22;9581;49.484;8.556;2023-09-19T07:10:21;18.30;99.90
18898;DHT22;9581;49.484;8.556;2023-09-19T07:12:55;18.20;99.90
18898;DHT22;9581;49.484;8.556;2023-09-19T07:15:22;18.30;99.90
18898;DHT22;9581;49.484;8.556;2023-09-19T07:17:51;18.40;99.90
18898;DHT22;9581;49.484;8.556;2023-09-19T07:20:18;18.40;99.90
18898;DHT22;9581;49.484;8.556;2023-09-19T07:22:45;18.30;99.90
18898;DHT22;9581;49.484;8.556;2023-09-19T07:25:13;18.40;99.90
18898;DHT22;9581;49.484;8.556;2023-09-19T07:27:40;18.40;99.90
18898;DHT22;9581;49.484;8.556;2023-09-19T07:30:10;18.60;99.90
18898;DHT22;9581;49.484;8.556;2023-09-19T07:32:37;18.70;99.90
18898;DHT22;9581;49.484;8.556;2023-09-19T07:35:06;18.70;99.90
18898;DHT22;9581;49.484;8.556;2023-09-19T07:37:34;18.60;99.90
18898;DHT22;9581;49.484;8.556;2023-09-19T07:40:01;18.60;99.90
18898;DHT22;9581;49.484;8.556;2023-09-19T07:42:32;18.60;99.90
18898;DHT22;9581;49.484;8.556;2023-09-19T07:45:00;18.90;99.90
18898;DHT22;9581;49.484;8.556;2023-09-19T07:47:29;18.80;99.90
18898;DHT22;9581;49.484;8.556;2023-09-19T07:49:58;19.00;99.90
18898;DHT22;9581;49.484;8.556;2023-09-19T07:52:25;19.10;99.90
18898;DHT22;9581;49.484;8.556;2023-09-19T07:54:53;19.10;99.90
18898;DHT22;9581;49.484;8.556;2023-09-19T07:57:20;19.10;99.90
18898;DHT22;9581;49.484;8.556;2023-09-19T07:59:47;19.20;99.90
18898;DHT22;9581;49.484;8.556;2023-09-19T08:02:13;19.30;99.90
18898;DHT22;9581;49.484;8.556;2023-09-19T08:04:43;19.20;99.90
18898;DHT22;9581;49.484;8.556;2023-09-19T08:07:11;19.20;99.90
18898;DHT22;9581;49.484;8.556;2023-09-19T08:09:38;19.40;99.90
18898;DHT22;9581;49.484;8.556;2023-09-19T08:12:06;19.60;99.90
18898;DHT22;9581;49.484;8.556;2023-09-19T08:14:33;19.70;99.90
18898;DHT22;9581;49.484;8.556;2023-09-19T08:17:00;19.60;99.90
18898;DHT22;9581;49.484;8.556;2023-09-19T08:19:27;19.60;99.90
18898;DHT22;9581;49.484;8.556;2023-09-19T08:21:58;19.80;99.90
18898;DHT22;9581;49.484;8.556;2023-09-19T08:24:25;19.90;99.90
18898;DHT22;9581;49.484;8.556;2023-09-19T08:26:54;19.90;99.90
18898;DHT22;9581;49.484;8.556;2023-09-19T08:29:20;19.80;99.90
18898;DHT22;9581;49.484;8.556;2023-09-19T08:31:47;19.70;99.90
18898;DHT22;9581;49.484;8.556;2023-09-19T08:34:15;19.60;99.90
18898;DHT22;9581;49.484;8.556;2023-09-19T08:36:42;19.60;99.90
18898;DHT22;9581;49.484;8.556;2023-09-19T08:39:11;19.60;99.90
18898;DHT22;9581;49.484;8.556;2023-09-19T08:41:39;19.60;99.90
18898;DHT22;9581;49.484;8.556;2023-09-19T08:44:06;19.60;99.90
18898;DHT22;9581;49.484;8.556;2023-09-19T08:46:34;19.60;99.90
18898;DHT22;9581;49.484;8.556;2023-09-19T08:49:04;19.70;99.90
18898;DHT22;9581;49.484;8.556;2023-09-19T08:51:39;19.60;99.90
18898;DHT22;9581;49.484;8.556;2023-09-19T08:54:22;19.80;99.90
18898;DHT22;9581;49.484;8.556;2023-09-19T08:56:54;19.80;99.90
18898;DHT22;9581;49.484;8.556;2023-09-19T08:59:22;19.80;99.90
18898;DHT22;9581;49.484;8.556;2023-09-19T09:01:51;19.90;99.90
18898;DHT22;9581;49.484;8.556;2023-09-19T09:04:20;19.90;99.90
18898;DHT22;9581;49.484;8.556;2023-09-19T09:06:49;20.00;99.90
18898;DHT22;9581;49.484;8.556;2023-09-19T09:09:20;19.90;99.90
18898;DHT22;9581;49.484;8.556;2023-09-19T09:11:48;20.20;99.90
18898;DHT22;9581;49.484;8.556;2023-09-19T09:14:17;20.30;99.90
18898;DHT22;9581;49.484;8.556;2023-09-19T09:16:45;20.40;99.90
18898;DHT22;9581;49.484;8.556;2023-09-19T09:19:13;20.50;99.90
18898;DHT22;9581;49.484;8.556;2023-09-19T09:21:40;20.40;99.90
18898;DHT22;9581;49.484;8.556;2023-09-19T09:24:27;20.50;99.90
18898;DHT22;9581;49.484;8.556;2023-09-19T09:26:55;20.50;99.90
18898;DHT22;9581;49.484;8.556;2023-09-19T09:29:41;20.40;99.90
18898;DHT22;9581;49.484;8.556;2023-09-19T09:32:19;20.70;99.90
18898;DHT22;9581;49.484;8.556;2023-09-19T09:34:48;20.70;99.90
18898;DHT22;9581;49.484;8.556;2023-09-19T09:37:16;20.60;99.90
18898;DHT22;9581;49.484;8.556;2023-09-19T09:39:51;20.60;99.90
18898;DHT22;9581;49.484;8.556;2023-09-19T09:42:32;20.40;99.90
18898;DHT22;9581;49.484;8.556;2023-09-19T09:45:17;20.60;99.90
18898;DHT22;9581;49.484;8.556;2023-09-19T09:47:46;20.60;99.90
18898;DHT22;9581;49.484;8.556;2023-09-19T09:50:26;20.70;99.90
18898;DHT22;9581;49.484;8.556;2023-09-19T09:52:55;20.60;99.90
18898;DHT22;9581;49.484;8.556;2023-09-19T09:55:57;20.50;99.90
18898;DHT22;9581;49.484;8.556;2023-09-19T09:58:25;20.70;99.90
18898;DHT22;9581;49.484;8.556;2023-09-19T10:00:54;20.90;99.90
18898;DHT22;9581;49.484;8.556;2023-09-19T10:03:31;21.00;99.90
18898;DHT22;9581;49.484;8.556;2023-09-19T10:06:00;21.10;99.90
18898;DHT22;9581;49.484;8.556;2023-09-19T10:08:28;21.10;99.90
18898;DHT22;9581;49.484;8.556;2023-09-19T10:10:58;21.20;99.90
18898;DHT22;9581;49.484;8.556;2023-09-19T10:13:31;21.30;99.90
18898;DHT22;9581;49.484;8.556;2023-09-19T10:16:06;21.60;99.90
18898;DHT22;9581;49.484;8.556;2023-09-19T10:18:36;22.10;99.90
18898;DHT22;9581;49.484;8.556;2023-09-19T10:21:04;22.10;99.90
18898;DHT22;9581;49.484;8.556;2023-09-19T10:23:34;22.20;99.90
18898;DHT22;9581;49.484;8.556;2023-09-19T10:26:05;22.10;99.90
18898;DHT22;9581;49.484;8.556;2023-09-19T10:28:35;22.00;99.90
18898;DHT22;9581;49.484;8.556;2023-09-19T10:31:04;22.10;99.90
18898;DHT22;9581;49.484;8.556;2023-09-19T10:33:36;21.70;99.90
18898;DHT22;9581;49.484;8.556;2023-09-19T10:36:05;21.90;99.90
18898;DHT22;9581;49.484;8.556;2023-09-19T10:38:33;21.90;99.90
18898;DHT22;9581;49.484;8.556;2023-09-19T10:41:01;22.20;99.90
18898;DHT22;9581;49.484;8.556;2023-09-19T10:43:32;22.70;99.90
18898;DHT22;9581;49.484;8.556;2023-09-19T10:46:01;23.00;99.90
18898;DHT22;9581;49.484;8.556;2023-09-19T10:48:29;22.60;99.90
18898;DHT22;9581;49.484;8.556;2023-09-19T10:51:02;23.10;99.90
18898;DHT22;9581;49.484;8.556;2023-09-19T10:53:41;23.30;99.90
18898;DHT22;9581;49.484;8.556;2023-09-19T10:56:09;22.90;99.90
18898;DHT22;9581;49.484;8.556;2023-09-19T10:58:44;22.80;99.90
18898;DHT22;9581;49.484;8.556;2023-09-19T11:01:11;23.00;99.90
18898;DHT22;9581;49.484;8.556;2023-09-19T11:03:40;23.10;99.90
18898;DHT22;9581;49.484;8.556;2023-09-19T11:06:11;22.90;99.90
18898;DHT22;9581;49.484;8.556;2023-09-19T11:08:55;22.50;99.90
18898;DHT22;9581;49.484;8.556;2023-09-19T11:11:40;22.50;99.90
18898;DHT22;9581;49.484;8.556;2023-09-19T11:14:30;24.00;99.90
18898;DHT22;9581;49.484;8.556;2023-09-19T11:20:25;26.20;99.90
18898;DHT22;9581;49.484;8.556;2023-09-19T11:23:20;27.10;99.90
18898;DHT22;9581;49.484;8.556;2023-09-19T11:25:54;26.20;99.90
18898;DHT22;9581;49.484;8.556;2023-09-19T11:28:33;24.30;99.90
18898;DHT22;9581;49.484;8.556;2023-09-19T11:34:40;24.00;99.90
18898;DHT22;9581;49.484;8.556;2023-09-19T11:40:28;24.20;99.90
18898;DHT22;9581;49.484;8.556;2023-09-19T11:42:56;24.30;99.90
18898;DHT22;9581;49.484;8.556;2023-09-19T11:48:27;23.90;99.90
18898;DHT22;9581;49.484;8.556;2023-09-19T11:50:56;23.60;99.90
18898;DHT22;9581;49.484;8.556;2023-09-19T11:53:31;23.70;99.90
18898;DHT22;9581;49.484;8.556;2023-09-19T11:55:59;23.20;99.90
18898;DHT22;9581;49.484;8.556;2023-09-19T11:58:27;23.00;99.90
18898;DHT22;9581;49.484;8.556;2023-09-19T12:00:55;23.50;99.90
18898;DHT22;9581;49.484;8.556;2023-09-19T12:03:29;23.60;99.90
18898;DHT22;9581;49.484;8.556;2023-09-19T12:05:58;24.10;99.90
18898;DHT22;9581;49.484;8.556;2023-09-19T12:08:28;24.40;99.90
18898;DHT22;9581;49.484;8.556;2023-09-19T12:10:55;24.50;99.90
18898;DHT22;9581;49.484;8.556;2023-09-19T12:13:23;24.10;99.90
18898;DHT22;9581;49.484;8.556;2023-09-19T12:15:51;23.70;99.90
18898;DHT22;9581;49.484;8.556;2023-09-19T12:18:28;23.50;99.90
18898;DHT22;9581;49.484;8.556;2023-09-19T12:20:55;23.50;99.90
18898;DHT22;9581;49.484;8.556;2023-09-19T12:23:24;23.60;99.90
18898;DHT22;9581;49.484;8.556;2023-09-19T12:25:52;23.70;99.90
18898;DHT22;9581;49.484;8.556;2023-09-19T12:28:23;23.60;99.90
18898;DHT22;9581;49.484;8.556;2023-09-19T12:30:52;23.50;99.90
18898;DHT22;9581;49.484;8.556;2023-09-19T12:33:21;23.40;99.90
18898;DHT22;9581;49.484;8.556;2023-09-19T12:35:51;23.50;99.90
18898;DHT22;9581;49.484;8.556;2023-09-19T12:38:24;23.70;99.90
18898;DHT22;9581;49.484;8.556;2023-09-19T12:40:52;23.60;99.90
18898;DHT22;9581;49.484;8.556;2023-09-19T12:43:19;23.60;99.90
18898;DHT22;9581;49.484;8.556;2023-09-19T12:45:47;23.40;99.90
18898;DHT22;9581;49.484;8.556;2023-09-19T12:48:21;23.20;99.90
18898;DHT22;9581;49.484;8.556;2023-09-19T12:51:04;23.30;99.90
18898;DHT22;9581;49.484;8.556;2023-09-19T12:53:35;23.50;99.90
18898;DHT22;9581;49.484;8.556;2023-09-19T12:56:06;23.60;99.90
18898;DHT22;9581;49.484;8.556;2023-09-19T12:58:36;23.30;99.90
18898;DHT22;9581;49.484;8.556;2023-09-19T13:01:14;23.30;99.90
18898;DHT22;9581;49.484;8.556;2023-09-19T13:03:41;23.40;99.90
18898;DHT22;9581;49.484;8.556;2023-09-19T13:06:08;23.50;99.90
18898;DHT22;9581;49.484;8.556;2023-09-19T13:08:38;23.50;99.90
18898;DHT22;9581;49.484;8.556;2023-09-19T13:11:10;23.40;99.90
18898;DHT22;9581;49.484;8.556;2023-09-19T13:13:39;23.50;99.90
18898;DHT22;9581;49.484;8.556;2023-09-19T13:16:07;23.60;99.90
18898;DHT22;9581;49.484;8.556;2023-09-19T13:18:47;23.80;99.90
18898;DHT22;9581;49.484;8.556;2023-09-19T13:21:17;23.50;99.90
18898;DHT22;9581;49.484;8.556;2023-09-19T13:23:53;23.70;99.90
18898;DHT22;9581;49.484;8.556;2023-09-19T13:26:22;23.90;99.90
18898;DHT22;9581;49.484;8.556;2023-09-19T13:28:48;23.80;99.90
18898;DHT22;9581;49.484;8.556;2023-09-19T13:31:15;23.60;99.90
18898;DHT22;9581;49.484;8.556;2023-09-19T13:33:44;23.80;99.90
18898;DHT22;9581;49.484;8.556;2023-09-19T13:36:11;23.80;99.90
18898;DHT22;9581;49.484;8.556;2023-09-19T13:38:38;23.70;99.90
18898;DHT22;9581;49.484;8.556;2023-09-19T13:41:06;23.80;99.90
18898;DHT22;9581;49.484;8.556;2023-09-19T13:43:33;24.00;99.90
18898;DHT22;9581;49.484;8.556;2023-09-19T13:46:00;24.00;99.90
18898;DHT22;9581;49.484;8.556;2023-09-19T13:48:28;24.10;99.90
18898;DHT22;9581;49.484;8.556;2023-09-19T13:50:56;24.10;99.90
18898;DHT22;9581;49.484;8.556;2023-09-19T13:53:23;24.10;99.90
18898;DHT22;9581;49.484;8.556;2023-09-19T13:55:51;24.20;99.90
18898;DHT22;9581;49.484;8.556;2023-09-19T13:58:19;24.40;99.90
18898;DHT22;9581;49.484;8.556;2023-09-19T14:00:46;24.10;99.90
18898;DHT22;9581;49.484;8.556;2023-09-19T14:03:13;24.20;99.90
18898;DHT22;9581;49.484;8.556;2023-09-19T14:05:40;24.20;99.90
18898;DHT22;9581;49.484;8.556;2023-09-19T14:08:07;24.00;99.90
18898;DHT22;9581;49.484;8.556;2023-09-19T14:10:34;24.20;99.90
18898;DHT22;9581;49.484;8.556;2023-09-19T14:13:01;24.40;99.90
18898;DHT22;9581;49.484;8.556;2023-09-19T14:15:29;24.50;99.90
18898;DHT22;9581;49.484;8.556;2023-09-19T14:17:57;24.80;99.90
18898;DHT22;9581;49.484;8.556;2023-09-19T14:20:25;24.80;99.90
18898;DHT22;9581;49.484;8.556;2023-09-19T14:22:53;24.60;99.90
18898;DHT22;9581;49.484;8.556;2023-09-19T14:25:19;24.90;99.90
18898;DHT22;9581;49.484;8.556;2023-09-19T14:27:47;24.90;99.90
18898;DHT22;9581;49.484;8.556;2023-09-19T14:30:14;24.90;99.90
18898;DHT22;9581;49.484;8.556;2023-09-19T14:32:42;24.70;99.90
18898;DHT22;9581;49.484;8.556;2023-09-19T14:35:09;24.60;99.90
18898;DHT22;9581;49.484;8.556;2023-09-19T14:37:36;24.50;99.90
18898;DHT22;9581;49.484;8.556;2023-09-19T14:40:06;24.60;99.90
18898;DHT22;9581;49.484;8.556;2023-09-19T14:42:35;24.20;99.90
18898;DHT22;9581;49.484;8.556;2023-09-19T14:45:04;24.50;99.90
18898;DHT22;9581;49.484;8.556;2023-09-19T14:47:32;24.60;99.90
18898;DHT22;9581;49.484;8.556;2023-09-19T14:50:01;24.50;99.90
18898;DHT22;9581;49.484;8.556;2023-09-19T14:52:31;24.70;99.90
18898;DHT22;9581;49.484;8.556;2023-09-19T14:54:59;24.60;99.90
18898;DHT22;9581;49.484;8.556;2023-09-19T14:57:26;24.50;99.90
18898;DHT22;9581;49.484;8.556;2023-09-19T14:59:52;24.50;99.90
18898;DHT22;9581;49.484;8.556;2023-09-19T15:02:20;24.20;99.90
18898;DHT22;9581;49.484;8.556;2023-09-19T15:04:46;24.00;99.90
18898;DHT22;9581;49.484;8.556;2023-09-19T15:07:15;23.80;99.90
18898;DHT22;9581;49.484;8.556;2023-09-19T15:09:43;23.80;99.90
18898;DHT22;9581;49.484;8.556;2023-09-19T15:12:11;24.00;99.90
18898;DHT22;9581;49.484;8.556;2023-09-19T15:14:39;24.60;99.90
18898;DHT22;9581;49.484;8.556;2023-09-19T15:17:07;25.00;99.90
18898;DHT22;9581;49.484;8.556;2023-09-19T15:19:34;25.00;99.90
18898;DHT22;9581;49.484;8.556;2023-09-19T15:22:01;24.80;99.90
18898;DHT22;9581;49.484;8.556;2023-09-19T15:24:29;24.30;99.90
18898;DHT22;9581;49.484;8.556;2023-09-19T15:26:56;24.50;99.90
18898;DHT22;9581;49.484;8.556;2023-09-19T15:29:23;24.60;99.90
18898;DHT22;9581;49.484;8.556;2023-09-19T15:31:49;25.30;99.90
18898;DHT22;9581;49.484;8.556;2023-09-19T15:34:16;25.20;99.90
18898;DHT22;9581;49.484;8.556;2023-09-19T15:36:43;24.70;99.90
18898;DHT22;9581;49.484;8.556;2023-09-19T15:39:11;24.50;99.90
18898;DHT22;9581;49.484;8.556;2023-09-19T15:41:45;24.40;99.90
18898;DHT22;9581;49.484;8.556;2023-09-19T15:44:13;24.10;99.90
18898;DHT22;9581;49.484;8.556;2023-09-19T15:46:41;24.00;99.90
18898;DHT22;9581;49.484;8.556;2023-09-19T15:49:08;23.90;99.90
18898;DHT22;9581;49.484;8.556;2023-09-19T15:51:36;23.80;99.90
18898;DHT22;9581;49.484;8.556;2023-09-19T15:54:08;24.20;99.90
18898;DHT22;9581;49.484;8.556;2023-09-19T15:56:35;24.00;99.90
18898;DHT22;9581;49.484;8.556;2023-09-19T15:59:04;24.40;99.90
18898;DHT22;9581;49.484;8.556;2023-09-19T16:01:30;24.40;99.90
18898;DHT22;9581;49.484;8.556;2023-09-19T16:03:57;24.40;99.90
18898;DHT22;9581;49.484;8.556;2023-09-19T16:06:26;24.50;99.90
18898;DHT22;9581;49.484;8.556;2023-09-19T16:08:54;24.30;99.90
18898;DHT22;9581;49.484;8.556;2023-09-19T16:11:22;24.20;99.90
18898;DHT22;9581;49.484;8.556;2023-09-19T16:13:50;24.10;99.90